Time;durP1;ratioP1;P1;durP2;ratioP2;P2;SDS_P1;SDS_P2;PMS_P1;PMS_P2;Temp;Humidity;BMP_temperature;BMP_pressure;BME280_temperature;BME280_humidity;BME280_pressure;Samples;Min_cycle;Max_cycle;Signal;HPM_P1;HPM_P2
2022/04/23 00:02:09;;;;;;;16.30;14.80;;;11.20;99.70;;;;;;5085271;28;20183;-62
2022/04/23 00:04:36;;;;;;;16.60;15.00;;;11.70;99.90;;;;;;5099309;28;20653;-61
2022/04/23 00:07:02;;;;;;;16.10;14.52;;;11.70;99.80;;;;;;5090205;28;20196;-61
2022/04/23 00:09:27;;;;;;;18.63;15.13;;;11.80;99.90;;;;;;5078756;28;20187;-60
2022/04/23 00:11:55;;;;;;;16.90;14.57;;;11.70;99.90;;;;;;5088515;28;20431;-61
2022/04/23 00:14:24;;;;;;;15.32;13.60;;;11.20;99.90;;;;;;5088024;28;20214;-61
2022/04/23 00:16:50;;;;;;;15.80;14.20;;;11.40;99.90;;;;;;5091603;28;20214;-61
2022/04/23 00:19:17;;;;;;;16.05;14.55;;;11.40;99.90;;;;;;5086295;28;20179;-61
2022/04/23 00:21:43;;;;;;;15.60;13.88;;;11.30;99.90;;;;;;5091202;28;20270;-61
2022/04/23 00:24:09;;;;;;;16.17;14.60;;;11.30;99.90;;;;;;5086577;28;20304;-61
2022/04/23 00:26:34;;;;;;;15.57;13.43;;;11.40;99.90;;;;;;5090970;28;20653;-61
2022/04/23 00:29:00;;;;;;;16.13;14.53;;;11.00;99.90;;;;;;5091793;28;20187;-61
2022/04/23 00:31:26;;;;;;;16.60;14.67;;;11.30;99.90;;;;;;5086753;28;20201;-61
2022/04/23 00:33:52;;;;;;;15.57;14.10;;;10.90;99.90;;;;;;5084105;28;20480;-61
2022/04/23 00:36:19;;;;;;;16.08;14.43;;;11.20;99.90;;;;;;5091615;28;20189;-60
2022/04/23 00:38:49;;;;;;;15.63;14.07;;;11.00;99.90;;;;;;5079655;28;20187;-61
2022/04/23 00:44:00;;;;;;;16.10;14.40;;;11.20;99.90;;;;;;5086233;28;20744;-61
2022/04/23 00:46:26;;;;;;;16.83;13.55;;;11.40;99.90;;;;;;5088814;28;20187;-61
2022/04/23 00:48:51;;;;;;;15.80;14.13;;;10.80;99.90;;;;;;5086091;28;20186;-61
2022/04/23 00:51:17;;;;;;;17.53;14.90;;;10.80;99.90;;;;;;5103368;27;20182;-61
2022/04/23 00:53:44;;;;;;;15.20;13.60;;;11.10;99.90;;;;;;5086382;28;20797;-61
2022/04/23 00:56:10;;;;;;;17.67;15.23;;;11.20;99.90;;;;;;5085084;28;20655;-61
2022/04/23 00:58:36;;;;;;;17.45;15.70;;;10.70;99.90;;;;;;5105296;28;20190;-61
2022/04/23 01:01:01;;;;;;;16.07;14.47;;;10.80;99.90;;;;;;5087939;28;20185;-61
2022/04/23 01:03:28;;;;;;;15.20;13.60;;;10.70;99.90;;;;;;5086715;28;20617;-61
2022/04/23 01:05:55;;;;;;;16.52;14.80;;;10.70;99.90;;;;;;5091170;28;20544;-61
2022/04/23 01:08:20;;;;;;;16.90;15.18;;;10.80;99.90;;;;;;5091461;28;20668;-60
2022/04/23 01:10:48;;;;;;;16.63;14.57;;;10.90;99.90;;;;;;5082173;28;20195;-61
2022/04/23 01:13:15;;;;;;;15.88;14.27;;;10.70;99.90;;;;;;5088365;28;20216;-61
2022/04/23 01:16:05;;;;;;;16.00;14.40;;;10.90;99.90;;;;;;5090801;28;20196;-59
2022/04/23 01:18:31;;;;;;;16.92;13.70;;;10.90;99.90;;;;;;5075729;28;20223;-60
2022/04/23 01:20:58;;;;;;;17.00;15.30;;;10.60;99.90;;;;;;5088420;28;20192;-61
2022/04/23 01:23:25;;;;;;;15.75;14.15;;;10.50;99.90;;;;;;5090434;28;20209;-61
2022/04/23 01:25:52;;;;;;;16.17;14.48;;;10.90;99.90;;;;;;5090680;28;20278;-61
2022/04/23 01:28:22;;;;;;;15.63;14.07;;;10.70;99.90;;;;;;5084735;28;20192;-61
2022/04/23 01:30:50;;;;;;;14.45;12.95;;;10.50;99.90;;;;;;5089516;28;20184;-61
2022/04/23 01:33:16;;;;;;;15.40;13.80;;;10.90;99.90;;;;;;5082999;28;20211;-61
2022/04/23 01:35:42;;;;;;;14.53;13.07;;;10.40;99.90;;;;;;5085493;28;20183;-59
2022/04/23 01:38:08;;;;;;;16.70;14.00;;;10.50;99.90;;;;;;5085997;28;20583;-60
2022/04/23 01:40:34;;;;;;;13.93;12.53;;;10.70;99.90;;;;;;5089652;28;20623;-60
2022/04/23 01:42:59;;;;;;;15.50;13.37;;;10.40;99.90;;;;;;5076762;28;20193;-60
2022/04/23 01:45:25;;;;;;;14.50;12.53;;;10.50;99.90;;;;;;5090257;28;20181;-60
2022/04/23 01:47:50;;;;;;;14.13;12.77;;;10.40;99.90;;;;;;5082764;28;20181;-60
2022/04/23 01:50:16;;;;;;;16.33;13.37;;;10.20;99.90;;;;;;5090554;28;20220;-60
2022/04/23 01:52:41;;;;;;;15.60;14.10;;;10.60;99.90;;;;;;5088279;28;20201;-60
2022/04/23 01:55:07;;;;;;;13.67;12.33;;;10.60;99.90;;;;;;5075504;28;20203;-60
2022/04/23 01:57:33;;;;;;;14.57;12.82;;;10.50;99.90;;;;;;5090128;28;20196;-60
2022/04/23 01:59:58;;;;;;;14.60;13.10;;;10.60;99.90;;;;;;5089899;28;20624;-60
2022/04/23 02:02:24;;;;;;;13.53;12.23;;;10.70;99.90;;;;;;5080769;28;20184;-60
2022/04/23 02:04:50;;;;;;;14.00;12.60;;;10.10;99.90;;;;;;5089368;28;20266;-60
2022/04/23 02:07:15;;;;;;;13.37;12.07;;;10.50;99.90;;;;;;5089079;28;20232;-60
2022/04/23 02:09:41;;;;;;;13.70;12.47;;;10.50;99.90;;;;;;5086854;28;20186;-60
2022/04/23 02:12:07;;;;;;;14.90;13.30;;;10.90;99.90;;;;;;5089487;28;20242;-60
2022/04/23 02:14:32;;;;;;;13.43;11.98;;;10.50;99.90;;;;;;5088694;28;20240;-60
2022/04/23 02:16:58;;;;;;;12.60;11.30;;;10.50;99.90;;;;;;5089373;28;20266;-60
2022/04/23 02:19:24;;;;;;;13.13;11.80;;;10.40;99.90;;;;;;5088842;28;20188;-60
2022/04/23 02:21:50;;;;;;;13.90;12.50;;;10.70;99.90;;;;;;5090214;28;20182;-60
2022/04/23 02:24:16;;;;;;;14.20;12.90;;;10.30;99.90;;;;;;5089036;28;20200;-60
2022/04/23 02:26:41;;;;;;;13.70;11.93;;;10.60;99.90;;;;;;5081994;28;20189;-60
2022/04/23 02:29:07;;;;;;;14.23;12.40;;;10.40;99.90;;;;;;5089490;28;20197;-60
2022/04/23 02:31:33;;;;;;;14.40;13.00;;;10.50;99.90;;;;;;5081509;28;20181;-60
2022/04/23 02:33:58;;;;;;;16.37;12.77;;;10.70;99.90;;;;;;5078478;28;20762;-60
2022/04/23 02:36:24;;;;;;;15.90;14.03;;;10.50;99.90;;;;;;5090822;28;20543;-60
2022/04/23 02:38:51;;;;;;;14.23;12.83;;;10.40;99.90;;;;;;5086306;28;20223;-60
2022/04/23 02:41:17;;;;;;;14.18;12.68;;;10.50;99.90;;;;;;5088302;28;20180;-60
2022/04/23 02:43:45;;;;;;;13.50;12.07;;;10.50;99.90;;;;;;5090015;28;20670;-60
2022/04/23 02:46:14;;;;;;;14.50;13.10;;;10.30;99.90;;;;;;5088341;28;20194;-59
2022/04/23 02:48:40;;;;;;;15.30;13.80;;;10.30;99.90;;;;;;5086048;28;20189;-60
2022/04/23 02:51:05;;;;;;;13.37;12.00;;;10.20;99.90;;;;;;5089672;28;20201;-60
2022/04/23 02:53:31;;;;;;;14.90;12.73;;;10.40;99.90;;;;;;5089798;28;20217;-60
2022/04/23 02:55:57;;;;;;;14.63;13.10;;;10.30;99.90;;;;;;5077284;28;20540;-60
2022/04/23 02:58:26;;;;;;;15.00;13.50;;;10.50;99.90;;;;;;5087117;28;20195;-59
2022/04/23 03:00:55;;;;;;;13.80;12.40;;;10.10;99.90;;;;;;5091850;28;20186;-60
2022/04/23 03:03:21;;;;;;;14.30;12.63;;;10.20;99.90;;;;;;5088298;28;20304;-60
2022/04/23 03:05:47;;;;;;;14.40;12.90;;;10.10;99.90;;;;;;5087858;28;20631;-60
2022/04/23 03:08:14;;;;;;;15.90;13.40;;;9.60;99.90;;;;;;5093456;28;20434;-60
2022/04/23 03:10:41;;;;;;;15.23;13.73;;;9.80;99.90;;;;;;5084926;28;20185;-59
2022/04/23 03:13:08;;;;;;;17.08;14.00;;;10.00;99.90;;;;;;5089562;28;20270;-60
2022/04/23 03:15:34;;;;;;;14.80;13.30;;;10.00;99.90;;;;;;5093588;28;20712;-60
2022/04/23 03:18:11;;;;;;;15.73;14.13;;;9.90;99.90;;;;;;5089995;28;20618;-60
2022/04/23 03:20:38;;;;;;;15.32;13.07;;;9.70;99.90;;;;;;5091109;28;20198;-60
2022/04/23 03:23:04;;;;;;;15.80;14.20;;;9.80;99.90;;;;;;5090923;28;20226;-59
2022/04/23 03:25:32;;;;;;;15.10;13.50;;;9.60;99.90;;;;;;5087922;28;20196;-60
2022/04/23 03:27:59;;;;;;;17.88;14.45;;;10.00;99.90;;;;;;5088796;28;20684;-60
2022/04/23 03:30:25;;;;;;;16.45;14.63;;;9.90;99.90;;;;;;5088599;28;20185;-60
2022/04/23 03:32:50;;;;;;;15.90;14.20;;;9.40;99.90;;;;;;5082737;28;20199;-60
2022/04/23 03:35:16;;;;;;;16.17;14.60;;;9.10;99.90;;;;;;5093370;28;20219;-59
2022/04/23 03:37:42;;;;;;;16.00;14.30;;;9.50;99.90;;;;;;5092478;28;20188;-59
2022/04/23 03:40:10;;;;;;;17.60;15.40;;;9.40;99.90;;;;;;5092860;28;20188;-59
2022/04/23 03:42:36;;;;;;;14.65;13.15;;;9.30;99.90;;;;;;5086993;28;20685;-59
2022/04/23 03:45:05;;;;;;;14.85;13.35;;;9.30;99.90;;;;;;5085876;28;20298;-59
2022/04/23 03:47:31;;;;;;;18.05;15.00;;;9.30;99.90;;;;;;5090214;28;20207;-60
2022/04/23 03:50:04;;;;;;;16.77;15.02;;;9.20;99.90;;;;;;5090824;28;20185;-60
2022/04/23 03:52:30;;;;;;;18.92;15.55;;;9.00;99.90;;;;;;5090938;28;20184;-59
2022/04/23 03:54:55;;;;;;;17.27;14.23;;;9.20;99.90;;;;;;5082892;28;20217;-60
2022/04/23 03:57:21;;;;;;;16.43;14.77;;;9.60;99.90;;;;;;5090562;28;20168;-60
2022/04/23 03:59:47;;;;;;;18.00;16.10;;;9.40;99.90;;;;;;5092088;28;20294;-59
2022/04/23 04:02:12;;;;;;;17.73;15.93;;;9.50;99.90;;;;;;5081814;28;20211;-60
2022/04/23 04:04:38;;;;;;;18.07;16.20;;;9.50;99.90;;;;;;5083149;28;20569;-60
2022/04/23 04:07:03;;;;;;;17.30;15.50;;;9.40;99.90;;;;;;5090201;28;20193;-59
2022/04/23 04:09:29;;;;;;;17.03;15.33;;;9.50;99.90;;;;;;5081038;28;20184;-60
2022/04/23 04:12:01;;;;;;;16.43;14.63;;;9.50;99.90;;;;;;5084553;28;20447;-60
2022/04/23 04:14:28;;;;;;;17.63;15.82;;;9.70;99.90;;;;;;5089908;28;20855;-61
2022/04/23 04:16:54;;;;;;;16.77;15.07;;;9.60;99.90;;;;;;5084177;28;20188;-62
2022/04/23 04:19:20;;;;;;;19.13;14.85;;;9.60;99.90;;;;;;5080771;28;20215;-65
2022/04/23 04:21:47;;;;;;;15.37;13.87;;;9.50;99.90;;;;;;5091009;28;20271;-61
2022/04/23 04:24:14;;;;;;;16.08;14.38;;;9.50;99.90;;;;;;5086135;28;21019;-62
2022/04/23 04:26:40;;;;;;;13.15;11.90;;;9.80;99.90;;;;;;5083893;28;20253;-61
2022/04/23 04:29:07;;;;;;;16.58;13.98;;;9.80;99.90;;;;;;5083263;28;20239;-62
2022/04/23 04:31:48;;;;;;;16.20;14.38;;;10.20;99.90;;;;;;5087996;28;20189;-62
2022/04/23 04:34:23;;;;;;;16.20;14.50;;;9.90;99.90;;;;;;5088029;28;20204;-63
2022/04/23 04:36:50;;;;;;;15.65;13.98;;;10.10;99.90;;;;;;5090855;28;20220;-62
2022/04/23 04:39:17;;;;;;;15.68;14.07;;;9.80;99.90;;;;;;5087952;28;20798;-62
2022/04/23 04:41:46;;;;;;;15.10;13.70;;;10.00;99.90;;;;;;5080959;28;20556;-62
2022/04/23 04:44:11;;;;;;;16.05;14.40;;;9.70;99.90;;;;;;5082176;28;20206;-61
2022/04/23 04:46:40;;;;;;;13.20;11.80;;;9.90;99.90;;;;;;5080095;28;20192;-62
2022/04/23 04:49:06;;;;;;;12.85;11.55;;;10.20;99.90;;;;;;5089756;28;20185;-61
2022/04/23 04:51:35;;;;;;;12.55;11.25;;;10.30;99.90;;;;;;5086055;28;20268;-62
2022/04/23 04:54:00;;;;;;;13.93;12.43;;;10.30;99.90;;;;;;5080143;28;20213;-61
2022/04/23 04:56:26;;;;;;;15.00;11.10;;;10.50;99.90;;;;;;5083610;28;20599;-61
2022/04/23 04:58:51;;;;;;;11.40;10.30;;;10.50;99.90;;;;;;5089963;28;20233;-62
2022/04/23 05:01:17;;;;;;;13.87;12.40;;;10.70;99.90;;;;;;5089614;28;20185;-61
2022/04/23 05:03:43;;;;;;;10.83;9.83;;;10.90;99.90;;;;;;5088705;28;20221;-62
2022/04/23 05:06:09;;;;;;;11.43;10.43;;;10.90;99.90;;;;;;5091570;28;20194;-62
2022/04/23 05:08:35;;;;;;;12.55;11.25;;;11.00;99.90;;;;;;5090114;28;20442;-60
2022/04/23 05:11:02;;;;;;;13.07;11.25;;;11.00;99.90;;;;;;5086423;28;20201;-61
2022/04/23 05:13:28;;;;;;;12.57;10.77;;;10.90;99.90;;;;;;5088719;28;20220;-60
2022/04/23 05:15:54;;;;;;;11.47;10.27;;;11.00;99.90;;;;;;5089546;28;20189;-61
2022/04/23 05:18:19;;;;;;;10.63;9.57;;;10.90;99.90;;;;;;5088837;28;20182;-61
2022/04/23 05:20:45;;;;;;;12.57;11.27;;;11.10;99.90;;;;;;5090337;28;20656;-61
2022/04/23 05:23:10;;;;;;;11.53;10.30;;;11.20;99.90;;;;;;5090782;28;20205;-61
2022/04/23 05:25:36;;;;;;;13.07;11.87;;;11.10;99.90;;;;;;5077408;28;20270;-61
2022/04/23 05:28:02;;;;;;;12.10;10.33;;;11.40;99.90;;;;;;5078615;28;20194;-62
2022/04/23 05:30:27;;;;;;;11.67;10.50;;;11.60;99.90;;;;;;5085861;28;20193;-62
2022/04/23 05:32:53;;;;;;;10.87;9.77;;;11.30;99.90;;;;;;5081157;28;20193;-61
2022/04/23 05:35:19;;;;;;;11.67;10.37;;;11.50;99.90;;;;;;5088200;28;20188;-62
2022/04/23 05:37:45;;;;;;;11.05;10.05;;;11.70;99.90;;;;;;5090865;28;20210;-62
2022/04/23 05:40:11;;;;;;;12.13;10.83;;;11.60;99.90;;;;;;5090785;28;20182;-62
2022/04/23 05:42:37;;;;;;;11.32;10.13;;;11.20;99.90;;;;;;5087378;28;20309;-62
2022/04/23 05:45:03;;;;;;;17.90;10.40;;;11.50;99.90;;;;;;5087090;28;20660;-62
2022/04/23 05:47:28;;;;;;;10.98;9.77;;;11.40;99.90;;;;;;5084688;28;20707;-63
2022/04/23 05:49:54;;;;;;;11.73;10.17;;;11.40;99.90;;;;;;5089724;28;20240;-61
2022/04/23 05:52:19;;;;;;;12.13;10.93;;;11.80;99.90;;;;;;5089035;28;20674;-62
2022/04/23 05:54:45;;;;;;;11.73;10.47;;;11.80;99.90;;;;;;5080742;28;20220;-60
2022/04/23 05:57:11;;;;;;;11.73;10.53;;;11.60;99.90;;;;;;5087574;28;20186;-60
2022/04/23 05:59:36;;;;;;;11.80;10.53;;;11.40;99.90;;;;;;5077021;28;20195;-60
2022/04/23 06:02:03;;;;;;;10.93;9.83;;;11.80;99.90;;;;;;5081522;28;20182;-60
2022/04/23 06:04:29;;;;;;;11.13;10.02;;;11.80;99.90;;;;;;5085083;28;20302;-60
2022/04/23 06:06:55;;;;;;;13.35;10.63;;;11.60;99.90;;;;;;5089602;28;20680;-60
2022/04/23 06:09:21;;;;;;;11.35;10.15;;;12.00;99.90;;;;;;5087857;28;20247;-60
2022/04/23 06:11:47;;;;;;;11.02;9.93;;;12.50;99.90;;;;;;5081783;28;20201;-60
2022/04/23 06:14:12;;;;;;;10.97;9.97;;;12.20;99.90;;;;;;5077467;28;20223;-60
2022/04/23 06:16:38;;;;;;;11.30;10.20;;;12.30;99.90;;;;;;5080022;28;20191;-60
2022/04/23 06:19:05;;;;;;;11.50;10.30;;;12.20;99.90;;;;;;5082275;28;20228;-60
2022/04/23 06:21:31;;;;;;;10.52;9.45;;;12.40;99.90;;;;;;5087522;28;20271;-60
2022/04/23 06:23:56;;;;;;;10.63;9.63;;;12.00;99.90;;;;;;5087274;28;20215;-60
2022/04/23 06:26:22;;;;;;;9.90;9.10;;;12.20;99.90;;;;;;5082421;28;20416;-60
2022/04/23 06:28:48;;;;;;;10.67;9.57;;;12.10;99.90;;;;;;5085218;28;20578;-60
2022/04/23 06:31:13;;;;;;;11.83;10.20;;;12.00;99.90;;;;;;5091871;28;20191;-60
2022/04/23 06:33:41;;;;;;;9.57;8.60;;;11.90;99.90;;;;;;5090609;28;20571;-60
2022/04/23 06:36:10;;;;;;;9.95;9.05;;;11.70;99.90;;;;;;5091253;28;20718;-60
2022/04/23 06:38:36;;;;;;;9.93;8.93;;;11.80;99.90;;;;;;5083732;28;20267;-60
2022/04/23 06:41:02;;;;;;;8.82;8.02;;;11.90;99.90;;;;;;5084629;28;20180;-61
2022/04/23 06:43:27;;;;;;;10.10;9.10;;;11.90;99.90;;;;;;5083120;28;20344;-60
2022/04/23 06:45:53;;;;;;;10.50;8.13;;;11.90;99.90;;;;;;5088693;28;20277;-61
2022/04/23 06:48:19;;;;;;;9.27;8.37;;;12.00;99.90;;;;;;5085606;28;20218;-60
2022/04/23 06:50:44;;;;;;;10.80;9.80;;;12.00;99.90;;;;;;5092377;28;20247;-60
2022/04/23 06:53:10;;;;;;;9.37;8.20;;;12.20;99.90;;;;;;5089934;28;20241;-60
2022/04/23 06:55:36;;;;;;;8.47;7.67;;;12.10;99.90;;;;;;5088255;28;20725;-61
2022/04/23 06:58:01;;;;;;;9.40;8.50;;;11.90;99.90;;;;;;5087449;28;20214;-60
2022/04/23 07:00:27;;;;;;;8.50;7.70;;;12.10;99.90;;;;;;5089715;28;20702;-61
2022/04/23 07:02:52;;;;;;;9.40;8.50;;;12.20;99.90;;;;;;5082679;28;20229;-60
2022/04/23 07:05:19;;;;;;;10.27;9.37;;;12.10;99.90;;;;;;5095950;28;20195;-60
2022/04/23 07:07:58;;;;;;;8.68;7.97;;;12.20;99.90;;;;;;5088318;28;20187;-60
2022/04/23 07:10:25;;;;;;;9.85;8.95;;;12.30;99.90;;;;;;5084544;28;20212;-60
2022/04/23 07:12:52;;;;;;;9.80;8.88;;;12.30;99.90;;;;;;5083769;28;20555;-60
2022/04/23 07:15:24;;;;;;;9.32;8.43;;;12.30;99.90;;;;;;5087792;28;20182;-60
2022/04/23 07:17:51;;;;;;;10.25;9.25;;;12.10;99.90;;;;;;5084680;28;20733;-60
2022/04/23 07:20:18;;;;;;;9.60;8.65;;;12.00;99.90;;;;;;5092249;28;20190;-60
2022/04/23 07:25:33;;;;;;;9.75;8.68;;;12.40;99.90;;;;;;5084749;28;20217;-55
2022/04/23 07:27:59;;;;;;;9.10;8.20;;;12.20;99.90;;;;;;5084611;28;20227;-57
2022/04/23 07:30:29;;;;;;;16.08;8.73;;;12.50;99.90;;;;;;5090270;28;20247;-57
2022/04/23 07:32:56;;;;;;;8.43;7.65;;;12.60;99.10;;;;;;5082770;28;20187;-57
2022/04/23 07:38:20;;;;;;;9.32;8.43;;;12.90;99.00;;;;;;5092683;28;20198;-57
2022/04/23 07:40:50;;;;;;;8.98;8.18;;;13.50;98.60;;;;;;5087593;28;20211;-55
2022/04/23 07:43:17;;;;;;;8.45;7.65;;;13.40;97.80;;;;;;5088992;28;20204;-60
2022/04/23 07:45:45;;;;;;;8.40;7.60;;;14.10;97.40;;;;;;5086410;28;20688;-59
2022/04/23 07:48:13;;;;;;;9.10;8.20;;;14.00;95.90;;;;;;5085558;28;20188;-60
2022/04/23 07:50:41;;;;;;;7.95;7.25;;;13.90;95.80;;;;;;5087282;28;20263;-59
2022/04/23 07:53:09;;;;;;;8.85;8.05;;;14.30;95.90;;;;;;5086962;28;20205;-58
2022/04/23 07:55:37;;;;;;;9.00;8.18;;;14.30;95.10;;;;;;5087929;28;20172;-60
2022/04/23 07:58:06;;;;;;;9.50;8.60;;;14.90;94.40;;;;;;5079498;28;20188;-61
2022/04/23 08:00:34;;;;;;;8.18;7.47;;;15.40;93.50;;;;;;5078778;28;20180;-59
2022/04/23 08:02:59;;;;;;;7.88;7.18;;;16.10;90.80;;;;;;5083707;28;20172;-60
2022/04/23 08:05:25;;;;;;;8.63;7.83;;;16.00;91.00;;;;;;5086096;28;20179;-59
2022/04/23 08:07:51;;;;;;;7.70;7.00;;;15.90;90.70;;;;;;5086813;28;20184;-58
2022/04/23 08:10:17;;;;;;;8.00;7.30;;;15.80;91.00;;;;;;5077964;28;20528;-58
2022/04/23 08:12:42;;;;;;;11.60;7.40;;;15.90;91.30;;;;;;5085393;28;20180;-58
2022/04/23 08:15:09;;;;;;;7.93;7.23;;;15.90;91.20;;;;;;5087744;28;20473;-55
2022/04/23 08:17:34;;;;;;;8.35;7.55;;;15.70;91.00;;;;;;5085288;28;20176;-56
2022/04/23 08:20:00;;;;;;;8.43;7.53;;;15.70;91.20;;;;;;5081791;28;20551;-58
2022/04/23 08:22:26;;;;;;;8.10;7.40;;;15.30;91.20;;;;;;5080003;28;20531;-58
2022/04/23 08:24:52;;;;;;;7.85;7.15;;;15.00;92.10;;;;;;5086989;28;20208;-58
2022/04/23 08:27:18;;;;;;;8.80;7.97;;;15.40;92.60;;;;;;5083096;28;20185;-58
2022/04/23 08:32:27;;;;;;;8.30;7.50;;;14.70;93.10;;;;;;5078686;28;20192;-56
2022/04/23 08:34:53;;;;;;;9.47;8.57;;;14.40;93.20;;;;;;5085511;28;20216;-55
2022/04/23 08:37:19;;;;;;;8.13;7.33;;;14.30;93.70;;;;;;5080279;28;20179;-54
2022/04/23 08:39:47;;;;;;;8.90;8.03;;;14.10;94.10;;;;;;5086738;28;20443;-54
2022/04/23 08:42:21;;;;;;;8.88;7.97;;;14.30;94.00;;;;;;5079419;28;20544;-54
2022/04/23 08:44:46;;;;;;;9.80;8.88;;;14.20;93.60;;;;;;5087523;28;20204;-53
2022/04/23 08:47:13;;;;;;;8.67;7.77;;;14.50;93.80;;;;;;5090894;28;20187;-54
2022/04/23 08:49:42;;;;;;;9.10;8.20;;;14.50;93.40;;;;;;5085344;28;20188;-54
2022/04/23 08:52:18;;;;;;;8.43;7.63;;;14.40;93.40;;;;;;5084970;28;20192;-55
2022/04/23 08:54:45;;;;;;;9.30;8.40;;;14.50;93.50;;;;;;5085214;28;20200;-55
2022/04/23 08:57:10;;;;;;;9.98;8.98;;;14.40;93.20;;;;;;5084096;28;20718;-55
2022/04/23 08:59:37;;;;;;;8.70;7.80;;;14.30;93.60;;;;;;5081157;28;20201;-55
2022/04/23 09:02:14;;;;;;;9.57;8.75;;;14.50;93.50;;;;;;5083722;28;20557;-55
2022/04/23 09:04:42;;;;;;;9.63;8.73;;;14.50;93.30;;;;;;5087468;28;20401;-54
2022/04/23 09:07:21;;;;;;;9.40;8.50;;;14.40;93.90;;;;;;5087180;28;20208;-54
2022/04/23 09:09:51;;;;;;;9.07;8.18;;;14.50;93.40;;;;;;5087374;28;20183;-55
2022/04/23 09:12:18;;;;;;;8.15;7.35;;;14.30;93.50;;;;;;5084002;28;20287;-54
2022/04/23 09:14:45;;;;;;;9.05;8.15;;;14.50;93.50;;;;;;5090021;28;20222;-54
2022/04/23 09:25:37;;;;;;;9.55;8.65;;;15.30;92.20;;;;;;5075409;28;20612;-55
2022/04/23 09:28:24;;;;;;;9.35;8.48;;;16.00;91.90;;;;;;5079803;28;20278;-54
2022/04/23 09:30:54;;;;;;;9.40;8.50;;;16.40;90.60;;;;;;5089288;28;20657;-54
2022/04/23 09:33:27;;;;;;;9.25;8.45;;;16.30;90.10;;;;;;5087147;28;20248;-54
2022/04/23 09:35:55;;;;;;;10.10;9.10;;;16.00;90.50;;;;;;5087981;28;20232;-55
2022/04/23 09:38:21;;;;;;;9.00;8.10;;;15.60;91.00;;;;;;5082543;28;20176;-54
2022/04/23 09:40:54;;;;;;;8.88;7.95;;;15.50;90.70;;;;;;5087397;28;20181;-54
2022/04/23 09:43:30;;;;;;;8.68;7.82;;;15.80;90.80;;;;;;5089093;28;20568;-54
2022/04/23 09:46:03;;;;;;;8.80;8.00;;;15.70;90.70;;;;;;5081063;28;20271;-52
2022/04/23 09:48:30;;;;;;;10.38;7.75;;;15.50;90.80;;;;;;5084423;28;20199;-54
2022/04/23 09:50:59;;;;;;;8.10;7.40;;;15.50;91.10;;;;;;5089642;28;20195;-54
2022/04/23 09:53:28;;;;;;;8.02;7.13;;;15.20;91.10;;;;;;5089422;28;20212;-54
2022/04/23 09:55:59;;;;;;;9.05;8.15;;;15.40;91.30;;;;;;5084069;28;20223;-55
2022/04/23 09:58:27;;;;;;;7.95;7.25;;;15.60;91.10;;;;;;5077927;28;20187;-55
2022/04/23 10:00:53;;;;;;;7.63;6.90;;;15.80;90.70;;;;;;5081988;28;20187;-53
2022/04/23 10:03:23;;;;;;;7.55;6.75;;;15.90;90.50;;;;;;5076829;28;20207;-56
2022/04/23 10:05:49;;;;;;;8.57;7.68;;;16.00;89.60;;;;;;5091608;28;20203;-54
2022/04/23 10:08:17;;;;;;;7.40;6.70;;;16.30;89.50;;;;;;5079770;28;20172;-54
2022/04/23 10:10:47;;;;;;;7.70;7.00;;;16.50;88.80;;;;;;5091854;28;20241;-54
2022/04/23 10:13:16;;;;;;;7.72;6.93;;;16.10;90.20;;;;;;5082153;28;20687;-54
2022/04/23 10:15:46;;;;;;;10.35;7.65;;;15.80;90.60;;;;;;5086052;28;20241;-57
2022/04/23 10:18:12;;;;;;;8.98;6.80;;;15.80;90.40;;;;;;5089607;28;20276;-55
2022/04/23 10:20:40;;;;;;;7.38;6.68;;;15.80;90.40;;;;;;5086597;28;20184;-55
2022/04/23 10:23:44;;;;;;;7.03;6.32;;;15.90;90.10;;;;;;5092760;28;20278;-55
2022/04/23 10:26:35;;;;;;;7.07;6.38;;;16.00;90.50;;;;;;5086299;28;20180;-57
2022/04/23 10:29:06;;;;;;;7.38;6.68;;;15.50;90.40;;;;;;5095173;28;20176;-57
2022/04/23 10:31:31;;;;;;;5.35;4.93;;;15.70;90.40;;;;;;5090822;28;20263;-55
2022/04/23 10:33:57;;;;;;;5.70;5.20;;;16.10;90.10;;;;;;5088013;28;20635;-56
2022/04/23 10:36:23;;;;;;;6.13;5.53;;;16.00;90.20;;;;;;5086025;28;20190;-56
2022/04/23 10:39:10;;;;;;;5.30;4.80;;;15.90;89.70;;;;;;5088011;28;20644;-57
2022/04/23 10:41:36;;;;;;;5.10;4.70;;;16.40;89.20;;;;;;5089575;28;20186;-54
2022/04/23 10:44:03;;;;;;;5.70;5.23;;;16.30;88.80;;;;;;5093283;28;20604;-55
2022/04/23 10:46:37;;;;;;;6.60;6.00;;;16.40;88.50;;;;;;5089242;28;20187;-55
2022/04/23 10:49:17;;;;;;;5.22;4.72;;;16.70;88.30;;;;;;5093045;28;20542;-54
2022/04/23 10:51:54;;;;;;;5.68;5.05;;;16.50;88.00;;;;;;5093431;28;20187;-56
2022/04/23 10:54:41;;;;;;;7.22;5.50;;;16.40;88.00;;;;;;5091307;28;20298;-56
2022/04/23 10:57:10;;;;;;;6.30;5.70;;;16.30;87.70;;;;;;5092809;28;20566;-56
2022/04/23 10:59:47;;;;;;;5.82;5.25;;;15.90;89.20;;;;;;5088096;28;20199;-57
2022/04/23 11:02:19;;;;;;;5.65;5.00;;;16.10;90.10;;;;;;5090665;28;20180;-55
2022/04/23 11:13:31;;;;;;;6.72;6.00;;;16.00;90.20;;;;;;5080754;28;20259;-56
2022/04/23 11:16:11;;;;;;;6.45;5.85;;;15.70;90.20;;;;;;5090788;28;20182;-56
2022/04/23 11:18:38;;;;;;;6.88;6.20;;;15.70;90.50;;;;;;5092315;28;20225;-56
2022/04/23 11:21:07;;;;;;;8.65;6.78;;;16.10;90.40;;;;;;5074679;28;20183;-56
2022/04/23 11:23:34;;;;;;;6.45;5.80;;;16.10;90.40;;;;;;5085484;28;20196;-58
2022/04/23 11:26:00;;;;;;;6.10;5.53;;;15.90;90.30;;;;;;5081691;28;20193;-56
2022/04/23 11:28:26;;;;;;;7.00;6.40;;;16.20;90.20;;;;;;5089753;28;20199;-58
2022/04/23 11:30:53;;;;;;;6.80;6.20;;;15.70;90.10;;;;;;5084817;28;20451;-57
2022/04/23 11:33:19;;;;;;;7.85;6.70;;;15.70;90.50;;;;;;5080319;28;20428;-58
2022/04/23 11:35:44;;;;;;;7.00;6.30;;;15.60;90.50;;;;;;5093710;28;20237;-59
2022/04/23 11:38:21;;;;;;;7.75;6.95;;;15.40;90.40;;;;;;5092122;28;20432;-59
2022/04/23 11:40:46;;;;;;;8.70;7.07;;;15.50;90.60;;;;;;5086120;28;20180;-57
2022/04/23 11:43:28;;;;;;;7.70;6.90;;;15.80;90.90;;;;;;5087109;28;20207;-55
2022/04/23 11:45:57;;;;;;;8.15;7.30;;;15.60;90.90;;;;;;5086787;28;20705;-54
2022/04/23 11:48:23;;;;;;;7.60;6.82;;;16.00;91.30;;;;;;5081419;28;20176;-54
2022/04/23 11:50:49;;;;;;;6.97;6.22;;;15.90;90.30;;;;;;5084178;28;20234;-62
2022/04/23 11:53:14;;;;;;;7.63;6.83;;;15.50;90.50;;;;;;5084148;28;20204;-55
2022/04/23 11:55:40;;;;;;;7.67;6.87;;;16.20;90.90;;;;;;5084211;28;20181;-58
2022/04/23 11:58:06;;;;;;;7.13;6.43;;;15.90;90.50;;;;;;5087415;28;20371;-55
2022/04/23 12:00:33;;;;;;;7.40;6.70;;;15.90;90.20;;;;;;5080923;28;20191;-61
2022/04/23 12:02:59;;;;;;;7.70;7.00;;;16.30;89.90;;;;;;5081336;28;20188;-57
2022/04/23 12:05:30;;;;;;;7.35;6.65;;;16.00;90.10;;;;;;5076678;28;20192;-53
2022/04/23 12:07:57;;;;;;;8.63;6.75;;;16.30;90.20;;;;;;5085827;28;20184;-58
2022/04/23 12:10:25;;;;;;;7.63;6.82;;;16.20;89.80;;;;;;5083451;28;20184;-58
2022/04/23 12:12:51;;;;;;;7.15;6.45;;;16.20;89.70;;;;;;5087187;28;20184;-58
2022/04/23 12:15:20;;;;;;;7.38;6.68;;;16.00;90.10;;;;;;5086550;28;20341;-57
2022/04/23 12:17:46;;;;;;;7.70;7.00;;;15.90;90.00;;;;;;5085460;28;20191;-57
2022/04/23 12:20:14;;;;;;;7.97;7.20;;;15.80;90.10;;;;;;5082722;28;20177;-58
2022/04/23 12:22:40;;;;;;;7.50;6.80;;;16.10;90.70;;;;;;5088082;28;20203;-54
2022/04/23 12:25:16;;;;;;;7.07;6.47;;;15.90;90.40;;;;;;5080249;28;20204;-59
2022/04/23 12:27:55;;;;;;;5.85;5.45;;;16.10;90.20;;;;;;5082650;28;20184;-56
2022/04/23 12:41:39;;;;;;;7.53;6.88;;;16.60;88.80;;;;;;5081841;28;20204;-59
2022/04/23 12:44:21;;;;;;;7.65;6.90;;;16.80;88.50;;;;;;5086872;28;20578;-56
2022/04/23 12:47:00;;;;;;;7.30;6.60;;;16.60;88.60;;;;;;5084489;28;20310;-59
2022/04/23 12:49:47;;;;;;;7.35;6.35;;;16.60;88.70;;;;;;5085157;28;20252;-57
2022/04/23 12:52:23;;;;;;;7.15;6.43;;;16.70;88.30;;;;;;5087717;28;20321;-57
2022/04/23 12:55:29;;;;;;;7.57;6.20;;;16.60;88.70;;;;;;5078715;28;20877;-57
2022/04/23 12:58:05;;;;;;;7.45;6.85;;;16.70;88.80;;;;;;5090107;28;20191;-57
2022/04/23 13:00:33;;;;;;;8.63;7.82;;;16.50;88.80;;;;;;5087408;28;20184;-57
2022/04/23 13:03:11;;;;;;;7.28;6.68;;;16.70;89.70;;;;;;5083589;28;20277;-57
2022/04/23 13:05:37;;;;;;;7.05;6.45;;;16.10;89.80;;;;;;5087702;28;20231;-56
2022/04/23 13:10:46;;;;;;;7.10;6.50;;;16.70;89.50;;;;;;5080859;28;20199;-58
2022/04/23 13:13:12;;;;;;;7.53;6.83;;;16.60;88.50;;;;;;5079064;28;20204;-56
2022/04/23 13:15:39;;;;;;;7.27;6.57;;;16.60;88.20;;;;;;5081787;28;20649;-57
2022/04/23 13:18:05;;;;;;;6.95;6.35;;;17.00;88.10;;;;;;5084512;28;20442;-58
2022/04/23 13:20:31;;;;;;;8.05;7.35;;;16.90;87.50;;;;;;5087092;28;20184;-57
2022/04/23 13:22:59;;;;;;;7.13;6.47;;;16.70;87.00;;;;;;5089382;28;20691;-59
2022/04/23 13:25:26;;;;;;;7.28;6.68;;;16.90;87.90;;;;;;5086243;28;20543;-59